sensor_id;sensor_type;location;lat;lon;timestamp;P1;durP1;ratioP1;P2;durP2;ratioP2
1523;SDS011;755;53.658;10.118;2022-10-31T00:08:05;36.95;;;17.58;;
1523;SDS011;755;53.658;10.118;2022-10-31T00:18:08;48.13;;;19.23;;
1523;SDS011;755;53.658;10.118;2022-10-31T00:28:12;35.22;;;19.10;;
1523;SDS011;755;53.658;10.118;2022-10-31T00:38:16;39.20;;;18.52;;
1523;SDS011;755;53.658;10.118;2022-10-31T00:48:19;33.28;;;17.05;;
1523;SDS011;755;53.658;10.118;2022-10-31T00:58:22;33.90;;;18.00;;
1523;SDS011;755;53.658;10.118;2022-10-31T01:08:25;33.25;;;17.67;;
1523;SDS011;755;53.658;10.118;2022-10-31T01:18:29;34.70;;;17.83;;
1523;SDS011;755;53.658;10.118;2022-10-31T01:28:32;31.35;;;17.27;;
1523;SDS011;755;53.658;10.118;2022-10-31T01:38:36;31.48;;;18.27;;
1523;SDS011;755;53.658;10.118;2022-10-31T01:48:38;40.58;;;18.05;;
1523;SDS011;755;53.658;10.118;2022-10-31T01:58:43;44.45;;;21.33;;
1523;SDS011;755;53.658;10.118;2022-10-31T02:08:47;51.33;;;25.10;;
1523;SDS011;755;53.658;10.118;2022-10-31T02:18:52;59.55;;;26.55;;
1523;SDS011;755;53.658;10.118;2022-10-31T02:39:39;71.07;;;30.80;;
1523;SDS011;755;53.658;10.118;2022-10-31T02:49:48;63.83;;;30.45;;
1523;SDS011;755;53.658;10.118;2022-10-31T02:59:59;75.15;;;31.17;;
1523;SDS011;755;53.658;10.118;2022-10-31T03:20:09;74.85;;;29.45;;
1523;SDS011;755;53.658;10.118;2022-10-31T03:30:12;66.65;;;28.05;;
1523;SDS011;755;53.658;10.118;2022-10-31T03:40:16;63.58;;;28.33;;
1523;SDS011;755;53.658;10.118;2022-10-31T03:50:22;67.57;;;28.23;;
1523;SDS011;755;53.658;10.118;2022-10-31T04:00:29;72.35;;;31.27;;
1523;SDS011;755;53.658;10.118;2022-10-31T04:10:33;76.97;;;31.55;;
1523;SDS011;755;53.658;10.118;2022-10-31T04:20:40;82.72;;;36.00;;
1523;SDS011;755;53.658;10.118;2022-10-31T04:30:42;106.88;;;38.25;;
1523;SDS011;755;53.658;10.118;2022-10-31T04:40:46;112.45;;;38.13;;
1523;SDS011;755;53.658;10.118;2022-10-31T04:50:48;142.23;;;42.45;;
1523;SDS011;755;53.658;10.118;2022-10-31T05:00:52;147.10;;;42.65;;
1523;SDS011;755;53.658;10.118;2022-10-31T05:10:55;156.05;;;42.70;;
1523;SDS011;755;53.658;10.118;2022-10-31T05:21:01;132.20;;;44.15;;
1523;SDS011;755;53.658;10.118;2022-10-31T05:31:04;154.27;;;46.83;;
1523;SDS011;755;53.658;10.118;2022-10-31T05:41:07;167.70;;;43.28;;
1523;SDS011;755;53.658;10.118;2022-10-31T05:51:09;174.15;;;42.38;;
1523;SDS011;755;53.658;10.118;2022-10-31T06:01:12;149.02;;;38.35;;
1523;SDS011;755;53.658;10.118;2022-10-31T06:11:14;153.05;;;38.33;;
1523;SDS011;755;53.658;10.118;2022-10-31T06:32:43;153.18;;;39.95;;
1523;SDS011;755;53.658;10.118;2022-10-31T06:42:46;267.67;;;40.28;;
1523;SDS011;755;53.658;10.118;2022-10-31T06:52:52;155.90;;;35.67;;
1523;SDS011;755;53.658;10.118;2022-10-31T07:02:55;150.30;;;36.55;;
1523;SDS011;755;53.658;10.118;2022-10-31T07:13:00;156.27;;;32.75;;
1523;SDS011;755;53.658;10.118;2022-10-31T07:23:03;123.63;;;25.00;;
1523;SDS011;755;53.658;10.118;2022-10-31T07:33:08;149.93;;;26.77;;
1523;SDS011;755;53.658;10.118;2022-10-31T07:43:10;147.88;;;29.35;;
1523;SDS011;755;53.658;10.118;2022-10-31T07:53:14;134.10;;;30.05;;
1523;SDS011;755;53.658;10.118;2022-10-31T08:03:17;155.25;;;29.95;;
1523;SDS011;755;53.658;10.118;2022-10-31T08:13:21;144.82;;;30.55;;
1523;SDS011;755;53.658;10.118;2022-10-31T08:23:23;133.05;;;28.27;;
1523;SDS011;755;53.658;10.118;2022-10-31T08:33:27;111.85;;;25.90;;
1523;SDS011;755;53.658;10.118;2022-10-31T08:43:29;111.15;;;27.42;;
1523;SDS011;755;53.658;10.118;2022-10-31T08:53:33;106.47;;;27.45;;
1523;SDS011;755;53.658;10.118;2022-10-31T09:03:35;126.55;;;30.00;;
1523;SDS011;755;53.658;10.118;2022-10-31T09:13:39;85.75;;;22.88;;
1523;SDS011;755;53.658;10.118;2022-10-31T09:23:41;100.68;;;25.23;;
1523;SDS011;755;53.658;10.118;2022-10-31T09:33:45;103.40;;;25.00;;
1523;SDS011;755;53.658;10.118;2022-10-31T09:43:50;92.20;;;24.42;;
1523;SDS011;755;53.658;10.118;2022-10-31T09:54:01;86.85;;;24.30;;
1523;SDS011;755;53.658;10.118;2022-10-31T10:04:11;92.38;;;24.48;;
1523;SDS011;755;53.658;10.118;2022-10-31T10:14:37;88.13;;;22.77;;
1523;SDS011;755;53.658;10.118;2022-10-31T10:24:55;99.67;;;23.83;;
1523;SDS011;755;53.658;10.118;2022-10-31T10:35:08;97.68;;;24.00;;
1523;SDS011;755;53.658;10.118;2022-10-31T10:45:18;78.00;;;22.63;;
1523;SDS011;755;53.658;10.118;2022-10-31T10:55:41;83.65;;;22.52;;
1523;SDS011;755;53.658;10.118;2022-10-31T11:05:51;70.55;;;21.60;;
1523;SDS011;755;53.658;10.118;2022-10-31T11:15:57;66.30;;;20.70;;
1523;SDS011;755;53.658;10.118;2022-10-31T11:26:02;71.90;;;21.23;;
1523;SDS011;755;53.658;10.118;2022-10-31T11:36:13;45.58;;;16.05;;
1523;SDS011;755;53.658;10.118;2022-10-31T11:46:19;49.63;;;17.15;;
1523;SDS011;755;53.658;10.118;2022-10-31T11:56:26;42.10;;;14.53;;
1523;SDS011;755;53.658;10.118;2022-10-31T12:06:32;37.07;;;15.83;;
1523;SDS011;755;53.658;10.118;2022-10-31T12:16:39;34.45;;;14.70;;
1523;SDS011;755;53.658;10.118;2022-10-31T12:26:51;34.58;;;12.30;;
1523;SDS011;755;53.658;10.118;2022-10-31T12:37:06;30.25;;;11.40;;
1523;SDS011;755;53.658;10.118;2022-10-31T12:47:27;26.73;;;9.15;;
1523;SDS011;755;53.658;10.118;2022-10-31T12:57:54;14.13;;;7.10;;
1523;SDS011;755;53.658;10.118;2022-10-31T13:08:03;24.75;;;9.85;;
1523;SDS011;755;53.658;10.118;2022-10-31T13:18:30;28.95;;;11.07;;
1523;SDS011;755;53.658;10.118;2022-10-31T13:28:38;39.08;;;13.93;;
1523;SDS011;755;53.658;10.118;2022-10-31T13:38:48;31.98;;;12.93;;
1523;SDS011;755;53.658;10.118;2022-10-31T13:48:53;32.28;;;13.45;;
1523;SDS011;755;53.658;10.118;2022-10-31T14:09:22;38.13;;;17.27;;
1523;SDS011;755;53.658;10.118;2022-10-31T14:19:29;43.27;;;16.20;;
1523;SDS011;755;53.658;10.118;2022-10-31T14:29:31;46.17;;;16.60;;
1523;SDS011;755;53.658;10.118;2022-10-31T14:39:39;30.98;;;14.35;;
1523;SDS011;755;53.658;10.118;2022-10-31T15:00:27;35.50;;;14.00;;
1523;SDS011;755;53.658;10.118;2022-10-31T15:10:33;31.70;;;12.33;;
1523;SDS011;755;53.658;10.118;2022-10-31T15:20:41;26.17;;;10.87;;
1523;SDS011;755;53.658;10.118;2022-10-31T15:30:49;30.95;;;11.80;;
1523;SDS011;755;53.658;10.118;2022-10-31T15:40:56;25.52;;;11.43;;
1523;SDS011;755;53.658;10.118;2022-10-31T15:51:06;32.70;;;13.38;;
1523;SDS011;755;53.658;10.118;2022-10-31T16:01:20;32.53;;;13.90;;
1523;SDS011;755;53.658;10.118;2022-10-31T16:11:32;30.65;;;14.07;;
1523;SDS011;755;53.658;10.118;2022-10-31T16:21:37;41.38;;;17.33;;
1523;SDS011;755;53.658;10.118;2022-10-31T16:31:41;46.55;;;20.25;;
1523;SDS011;755;53.658;10.118;2022-10-31T16:41:46;49.90;;;19.98;;
1523;SDS011;755;53.658;10.118;2022-10-31T16:51:50;50.93;;;20.63;;
1523;SDS011;755;53.658;10.118;2022-10-31T17:01:53;51.15;;;18.67;;
1523;SDS011;755;53.658;10.118;2022-10-31T17:11:56;48.38;;;17.02;;
1523;SDS011;755;53.658;10.118;2022-10-31T17:22:00;52.45;;;17.35;;
1523;SDS011;755;53.658;10.118;2022-10-31T17:32:02;50.67;;;18.13;;
1523;SDS011;755;53.658;10.118;2022-10-31T17:42:06;52.55;;;18.40;;
1523;SDS011;755;53.658;10.118;2022-10-31T17:52:08;46.33;;;16.30;;
1523;SDS011;755;53.658;10.118;2022-10-31T18:02:11;49.97;;;17.80;;
1523;SDS011;755;53.658;10.118;2022-10-31T18:12:13;47.75;;;18.95;;
1523;SDS011;755;53.658;10.118;2022-10-31T18:22:17;42.67;;;17.10;;
1523;SDS011;755;53.658;10.118;2022-10-31T18:32:19;39.35;;;16.98;;
1523;SDS011;755;53.658;10.118;2022-10-31T18:42:22;48.05;;;20.25;;
1523;SDS011;755;53.658;10.118;2022-10-31T18:52:24;53.13;;;22.10;;
1523;SDS011;755;53.658;10.118;2022-10-31T19:02:27;54.88;;;23.92;;
1523;SDS011;755;53.658;10.118;2022-10-31T19:12:30;52.65;;;22.80;;
1523;SDS011;755;53.658;10.118;2022-10-31T19:22:33;56.17;;;25.58;;
1523;SDS011;755;53.658;10.118;2022-10-31T19:32:35;60.90;;;27.58;;
1523;SDS011;755;53.658;10.118;2022-10-31T19:42:39;64.60;;;25.50;;
1523;SDS011;755;53.658;10.118;2022-10-31T19:52:41;58.90;;;23.55;;
1523;SDS011;755;53.658;10.118;2022-10-31T20:02:44;62.78;;;26.27;;
1523;SDS011;755;53.658;10.118;2022-10-31T20:12:46;62.75;;;25.10;;
1523;SDS011;755;53.658;10.118;2022-10-31T20:22:50;62.95;;;24.27;;
1523;SDS011;755;53.658;10.118;2022-10-31T20:32:52;54.22;;;23.27;;
1523;SDS011;755;53.658;10.118;2022-10-31T20:42:55;60.97;;;22.92;;
1523;SDS011;755;53.658;10.118;2022-10-31T20:52:57;49.30;;;21.20;;
1523;SDS011;755;53.658;10.118;2022-10-31T21:03:00;53.15;;;21.40;;
1523;SDS011;755;53.658;10.118;2022-10-31T21:13:02;71.03;;;23.92;;
1523;SDS011;755;53.658;10.118;2022-10-31T21:23:05;77.88;;;26.23;;
1523;SDS011;755;53.658;10.118;2022-10-31T21:33:08;89.38;;;26.58;;
1523;SDS011;755;53.658;10.118;2022-10-31T21:43:11;73.05;;;26.05;;
1523;SDS011;755;53.658;10.118;2022-10-31T21:53:14;80.63;;;26.70;;
1523;SDS011;755;53.658;10.118;2022-10-31T22:03:35;79.47;;;25.50;;
1523;SDS011;755;53.658;10.118;2022-10-31T22:13:38;77.85;;;27.00;;
1523;SDS011;755;53.658;10.118;2022-10-31T22:23:42;74.07;;;26.05;;
1523;SDS011;755;53.658;10.118;2022-10-31T22:33:45;83.45;;;28.45;;
1523;SDS011;755;53.658;10.118;2022-10-31T22:43:49;75.32;;;25.95;;
1523;SDS011;755;53.658;10.118;2022-10-31T22:53:52;91.03;;;27.38;;
1523;SDS011;755;53.658;10.118;2022-10-31T23:03:57;95.55;;;28.05;;
1523;SDS011;755;53.658;10.118;2022-10-31T23:14:00;78.65;;;24.95;;
1523;SDS011;755;53.658;10.118;2022-10-31T23:24:10;86.63;;;25.83;;
1523;SDS011;755;53.658;10.118;2022-10-31T23:34:13;81.63;;;27.90;;
1523;SDS011;755;53.658;10.118;2022-10-31T23:44:17;74.95;;;25.52;;
1523;SDS011;755;53.658;10.118;2022-10-31T23:54:19;67.50;;;24.02;;
